Observations for WELLINGTON INTL, New Zealand (NZWN)

NZWN 252200Z AUTO 33023G35KT 9000 -RA BKN013/// OVC018/// 15/13 Q0999 BECMG 9999 BKN016 TEMPO 6000 RA BKN012
NZWN 252130Z AUTO 35026G38KT 8000 -RA OVC014/// 15/13 Q0999 BECMG 9999 BKN016 TEMPO 6000 RA BKN012  
NZWN 252100Z AUTO 36031G41KT 9999 -RA BKN018/// 15/13 Q0999 BECMG BKN020 TEMPO 6000 RA BKN012   
NZWN 252030Z AUTO 36021G34KT 5000 -RA HZ BKN016/// BKN022/// BKN027/// 14/13 Q1000 BECMG BKN020 TEMPO 6000 RA BKN012
NZWN 252000Z AUTO 36024KT 8000 -RA BKN017/// OVC025/// 14/12 Q1000 BECMG BKN020 TEMPO 6000 RA BKN012
NZWN 251930Z AUTO 36026G41KT 9999 -RA FEW012/// BKN022/// OVC049/// 14/13 Q1001 BECMG BKN020 TEMPO 6000 RA BKN012   
NZWN 251900Z AUTO 35021G35KT 320V020 3300 RA HZ SCT014/// BKN021/// OVC055/// 14/13 Q1002 BECMG BKN020 TEMPO 6000 RA BKN012 
NZWN 251830Z AUTO 34027G44KT 9999 -DZ SCT015/// BKN021/// BKN045/// 15/12 Q1002 BECMG BKN020 TEMPO 6000 RA BKN012   
NZWN 251800Z AUTO 34026G45KT 9999 BKN014/// 16/13 Q1002 BECMG BKN020 TEMPO 6000 RA BKN012   
NZWN 251730Z AUTO 34029G44KT 9999 BKN015/// 15/13 Q1002 BECMG BKN020 TEMPO 6000 RA BKN012   
NZWN 251700Z AUTO 35025G41KT 9999 OVC018/// 15/13 Q1002 NOSIG   
NZWN 251630Z AUTO 34022G38KT 9999 SCT017/// BKN022/// BKN028/// 15/12 Q1003 TEMPO 6000 RA   
NZWN 251600Z AUTO 34024G38KT 9999 BKN015/// 15/13 Q1003 BECMG 9999 TEMPO 6000 RA BKN008 
NZWN 251530Z AUTO 33025G43KT 9000 -RA OVC012/// 15/13 Q1003 BECMG 9999 TEMPO 6000 RA BKN008 
NZWN 251500Z AUTO 33024G39KT 300V360 9000 DZ OVC011/// 15/13 Q1003 BECMG 9999 TEMPO 4000 RA BKN008  
NZWN 251430Z AUTO 33022G39KT 300V360 9999 OVC010/// 15/13 Q1003 TEMPO 4000 RA BKN008
NZWN 251400Z AUTO 34024G38KT 9999 OVC010/// 15/14 Q1003 TEMPO 4000 RA BKN008
NZWN 251330Z AUTO 34026G41KT 9999 -RA OVC011/// 15/14 Q1003 TEMPO 4000 RA BKN008
NZWN 251300Z AUTO 34028G43KT 310V010 9000 -RA OVC011/// 15/14 Q1004 BECMG 9999 TEMPO 4000 RA BKN008 
NZWN 251230Z AUTO 34028G44KT 9999 OVC011/// 15/14 Q1004 TEMPO 4000 RA BKN008
NZWN 251200Z AUTO 33023G40KT 7000 -RA BKN010/// 15/13 Q1004 TEMPO 4000 RA BKN008
NZWN 251130Z AUTO 33026G41KT 300V020 8000 BKN011/// 15/13 Q1004 TEMPO 4000 RA BKN008
NZWN 251100Z AUTO 34027G44KT 9999 OVC012/// 15/13 Q1005 TEMPO 4000 RA BKN008
NZWN 251030Z AUTO 35026G43KT 320V020 9999 OVC013/// 16/14 Q1005 TEMPO 4000 RA BKN008
NZWN 251000Z AUTO 34027G44KT 9999 -RA OVC012/// 16/13 Q1005 TEMPO 4000 RA   
NZWN 250930Z AUTO 34031G51KT 9999 OVC010/// 16/14 Q1004 TEMPO 4000 RA   
NZWN 250900Z AUTO 33030G42KT 9999 OVC010/// 16/14 Q1004 TEMPO 4000 RA   
NZWN 250830Z AUTO 34029G45KT 9999 OVC010/// 16/14 Q1004 TEMPO 4000 RA   
NZWN 250800Z AUTO 34025G46KT 9999 OVC011/// 16/14 Q1005 TEMPO 4000 RA   
NZWN 250730Z AUTO 34020G31KT 7000 -RA OVC011/// 15/14 Q1005 BECMNG 9999 TEMPO 4000 RA   
NZWN 250700Z AUTO 34019G35KT 9999 -RA OVC010/// 15/14 Q1006 TEMPO 4000 RA   
NZWN 250630Z AUTO 34020G30KT 300V010 9999 -RA OVC012/// 16/14 Q1006 TEMPO 4000 RA   
NZWN 250600Z AUTO 34023G40KT 300V010 7000 -RA BKN009/// 15/14 Q1005 TEMPO 4000 RA   
NZWN 250530Z AUTO 34029G44KT 300V360 9999 OVC009/// 15/14 Q1005 TEMPO 4000 RA   
NZWN 250500Z AUTO 34029G44KT 3300 -RA HZ OVC010/// 15/14 Q1004 TEMPO 9999   
NZWN 250430Z AUTO 33024G38KT 300V360 9000 OVC009/// 15/14 Q1004 TEMPO 4000 RA   
NZWN 250400Z AUTO 33024G42KT 300V360 9999 BKN011/// 16/13 Q1005 TEMPO 4000 RA   
NZWN 250330Z AUTO 34028G41KT 9999 BKN010/// 15/13 Q1004 TEMPO 4000 RA   
NZWN 250300Z AUTO 34024G39KT 9999 OVC011/// 16/13 Q1005 TEMPO 4000 RA   
NZWN 250230Z AUTO 35023G35KT 9999 BKN013/// 15/13 Q1005 TEMPO 4000 RA   
NZWN 250200Z AUTO 34023G38KT 9999 OVC011/// 15/13 Q1006 TEMPO 4000 RA   
NZWN 250130Z AUTO 33024G41KT 9999 OVC010/// 15/13 Q1007 TEMPO 4000 RA   
NZWN 250100Z AUTO 35023G37KT 9999 DZ BKN010/// BKN015/// 15/13 Q1007 TEMPO 4000 RA  
NZWN 250030Z AUTO 34027G42KT 4200 -RA HZ OVC010/// 14/13 Q1008 BECMG 9999 TEMPO 4000 RA 
NZWN 250000Z AUTO 34028G52KT 3800 -RA HZ OVC011/// 14/13 Q1008 BECMG 9999 BKN016 TEMPO 5000 DZ BKN012   
NZWN 242330Z AUTO 35024G38KT 320V020 5000 -RA HZ OVC011/// 14/13 Q1008 BECMG 9999 BKN016 TEMPO 5000 DZ BKN012   
NZWN 242300Z AUTO 36027G41KT 5000 -RA HZ BKN010/// 14/12 Q1008 BECMG 9999 TEMPO 5000 DZ BKN012  
NZWN 242230Z AUTO 36023G35KT 5000 -RA HZ BKN012/// 14/12 Q1008 BECMG 9999 BKN016 TEMPO 5000 RA BKN012   
NZWN 242200Z AUTO 36027G43KT 3000 -RA HZ BKN013/// 14/12 Q1009 BECMG 9999 TEMPO 5000 DZ BKN012  
NZWN 242130Z AUTO 36026G40KT 5000 -RA HZ OVC014/// 14/12 Q1009 BECMG 9999 TEMPO 5000 DZ